Latest Coastal Weather Observations for Hobart

IDT60701

Issued at 6:11 am EDT Sunday 1 March 2015 (issued every 10 minutes, with the page automatically refreshed every 10 minutes)

About coastal observations | Map of coastal stations | Coastal observations for TAS | Marine services | Other Formats
Station Details ID: 094029 Name: HOBART (ELLERSLIE ROAD) Lat: -42.89 Lon: 147.33 Height: 50.5 m
Data from the previous 72 hours. | See also: Recent months at Hobart
Date/Time
EDT
Temp

°C
Wind Pressure Rain
since 9am
mm
Weather Cloud Vis
km
Sea
Height
m
Swell
Dir
 
Speed
knots
Gust
knots
hPa Trend Height
m
Period
s
Dir
01/06:00am 14.8 NW 9 14 1001.6 - 1.4 - - - - - - -
01/05:30am 15.3 NW 9 12 1001.2 - 1.4 - - - - - - -
01/05:00am 15.6 N 9 15 1000.9 - 1.4 - - - - - - -
01/04:30am 15.7 NNW 10 17 1000.8 - 1.4 - - - - - - -
01/04:00am 16.0 NW 15 25 1000.2 - 1.4 - - - - - - -
01/03:38am 16.2 NNW 15 25 1000.2 - 1.4 - - - - - - -
01/03:30am 16.3 NNW 16 25 1000.2 - 1.4 - - - - - - -
01/03:00am 16.6 NW 15 22 1000.2 - 1.4 - - - - - - -
01/02:30am 17.1 NW 14 27 999.6 - 1.4 - - - - - - -
01/02:28am 17.1 NW 15 27 999.7 - 1.4 - - - - - - -
01/02:00am 16.9 NW 11 17 999.6 - 1.4 - - - - - - -
01/01:30am 17.5 NNW 9 15 999.5 - 1.4 - - - - - - -
01/01:04am 17.8 NW 11 26 999.3 - 1.4 - - - - - - -
01/01:00am 17.8 NNW 9 14 999.3 - 1.4 - - - - - - -
01/12:30am 18.2 NW 9 13 999.1 - 1.4 - - - - - - -
01/12:00am 18.9 NNW 9 13 998.7 - 1.4 - - - - - - -
 
Date/Time
EDT
Temp

°C
Wind Pressure Rain
since 9am
mm
Weather Cloud Vis
km
Sea
Height
m
Swell
Dir
 
Speed
knots
Gust
knots
hPa Trend Height
m
Period
s
Dir
28/11:30pm 19.4 NW 10 17 998.2 - 1.4 - - - - - - -
28/11:00pm 19.4 NW 8 11 998.1 - 1.4 - - - - - - -
28/10:30pm 20.3 NW 11 19 998.3 - 1.4 - - - - - - -
28/10:00pm 19.5 WNW 7 10 998.0 - 1.4 - - - - - - -
28/09:30pm 20.3 WNW 7 11 997.5 - 1.4 - - - - - - -
28/09:00pm 20.3 WNW 8 12 997.1 - 1.4 - - - - - - -
28/08:30pm 20.3 WNW 7 11 997.0 - 1.4 - - - - - - -
28/08:00pm 20.3 NW 8 13 996.8 - 1.4 - - - - - - -
28/07:30pm 19.8 CALM 0 0 996.2 - 1.4 - - - - - - -
28/07:00pm 20.5 NNE 4 6 996.3 - 1.4 - - - - - - -
28/06:30pm 20.5 NNE 6 7 996.7 - 1.4 - - - - - - -
28/06:00pm 20.1 N 6 10 996.9 - 1.4 - - - - - - -
28/05:30pm 19.8 N 6 11 997.0 - 1.4 - - - - - - -
28/05:00pm 19.5 N 9 12 997.4 - 1.4 - - - - - - -
28/04:30pm 19.8 N 9 13 997.7 - 1.4 - - - - - - -
28/04:00pm 19.7 N 9 13 998.1 - 1.4 - - - - - - -
28/03:30pm 19.4 N 10 15 998.9 - 1.4 - - - - - - -
28/03:00pm 19.6 N 14 19 999.3 - 1.4 - - - - - - -
28/02:30pm 19.2 N 9 15 1000.0 - 1.4 - - - - - - -
28/02:00pm 18.8 N 7 12 1000.6 - 1.4 - - - - - - -
28/01:30pm 17.9 N 7 10 1000.9 - 1.4 - - - - - - -
28/01:00pm 16.2 N 3 6 1001.6 - 1.4 - - - - - - -
28/12:30pm 15.4 NNE 6 9 1002.0 - 1.4 - - - - - - -
28/12:00pm 15.6 N 7 10 1002.4 - 1.0 Rain - - - - - -
28/11:30am 16.3 N 9 13 1002.4 - 0.0 - - - - - - -
28/11:00am 16.7 N 12 16 1002.7 - 0.0 - - - - - - -
28/10:30am 16.5 NNW 13 17 1003.0 - 0.0 - - - - - - -
28/10:00am 16.2 NNW 12 17 1003.5 - 0.0 - - - - - - -
28/09:30am 16.9 N 11 16 1004.1 - 0.0 - - - - - - -
28/09:00am 15.8 NNW 9 14 1004.7 - 0.2 - - - - - - -
28/08:30am 14.3 N 6 10 1005.0 - 0.2 - - - - - - -
28/08:00am 14.0 N 6 8 1005.5 - 0.2 - - - - - - -
28/07:30am 13.9 N 7 9 1005.8 - 0.2 - - - - - - -
28/07:00am 13.7 N 7 11 1006.1 - 0.2 - - - - - - -
28/06:30am 13.7 N 6 9 1006.6 - 0.2 - - - - - - -
28/06:00am 13.4 NW 5 6 1007.2 - 0.2 - - - - - - -
28/05:30am 13.5 NNW 5 7 1007.0 - 0.2 - - - - - - -
28/05:00am 13.6 NNW 6 7 1007.7 - 0.2 - - - - - - -
28/04:30am 13.5 NNW 6 9 1008.0 - 0.2 - - - - - - -
28/04:00am 13.4 NNW 5 6 1008.5 - 0.2 - - - - - - -
28/03:30am 13.2 WNW 2 4 1009.1 - 0.2 - - - - - - -
28/03:00am 13.1 W 4 5 1009.2 - 0.2 - - - - - - -
28/02:30am 13.1 SW 4 5 1009.5 - 0.2 - - - - - - -
28/02:00am 13.0 SW 3 5 1009.8 - 0.2 - - - - - - -
28/01:30am 13.1 SW 3 5 1010.2 - 0.2 - - - - - - -
28/01:00am 13.1 SW 5 7 1010.4 - 0.2 - - - - - - -
28/12:30am 13.3 SSW 7 10 1010.5 - 0.2 - - - - - - -
28/12:00am 13.5 SSW 6 9 1010.9 - 0.2 - - - - - - -
 
Date/Time
EDT
Temp

°C
Wind Pressure Rain
since 9am
mm
Weather Cloud Vis
km
Sea
Height
m
Swell
Dir
 
Speed
knots
Gust
knots
hPa Trend Height
m
Period
s
Dir
27/11:30pm 13.5 SSW 5 8 1011.2 - 0.2 - - - - - - -
27/11:00pm 13.6 SSW 6 10 1011.1 - 0.2 - - - - - - -
27/10:30pm 13.7 SSW 6 8 1011.2 - 0.2 - - - - - - -
27/10:00pm 13.8 S 7 11 1011.2 - 0.2 - - - - - - -
27/09:30pm 13.8 SSE 8 14 1011.1 - 0.2 - - - - - - -
27/09:00pm 13.9 S 10 15 1010.7 - 0.2 - - - - - - -
27/08:30pm 14.1 SSE 7 12 1010.5 - 0.2 - - - - - - -
27/08:00pm 14.2 S 6 10 1010.4 - 0.2 - - - - - - -
27/07:30pm 14.4 S 7 15 1009.9 - 0.2 - - - - - - -
27/07:00pm 14.5 SSE 11 17 1009.8 - 0.2 - - - - - - -
27/06:30pm 14.9 S 14 19 1009.8 - 0.2 - - - - - - -
27/06:00pm 15.3 S 15 21 1009.9 - 0.2 - - - - - - -
27/05:30pm 16.1 S 13 20 1009.5 - 0.2 - - - - - - -
27/05:00pm 16.7 S 14 20 1008.9 - 0.2 - - - - - - -
27/04:30pm 17.3 SSE 11 15 1008.6 - 0.2 - - - - - - -
27/04:00pm 17.9 SE 9 12 1008.6 - 0.2 - - - - - - -
27/03:30pm 18.0 SSE 9 13 1008.9 - 0.2 - - - - - - -
27/03:00pm 17.4 ESE 9 12 1009.0 - 0.2 - - - - - - -
27/02:30pm 17.6 SE 9 12 1009.0 - 0.2 - - - - - - -
27/02:00pm 17.4 SE 9 13 1008.9 - 0.2 - - - - - - -
27/01:30pm 17.1 SE 7 10 1009.3 - 0.2 - - - - - - -
27/01:00pm 16.8 ESE 6 7 1009.6 - 0.2 - - - - - - -
27/12:30pm 17.0 ENE 5 7 1009.6 - 0.2 - - - - - - -
27/12:00pm 17.1 ENE 5 7 1009.7 - 0.2 - - - - - - -
27/11:30am 16.5 SE 4 6 1010.1 - 0.2 - - - - - - -
27/11:00am 16.7 E 3 6 1010.7 - 0.2 - - - - - - -
27/10:30am 15.5 NE 5 8 1010.8 - 0.2 - - - - - - -
27/10:00am 15.2 E 2 5 1010.9 - 0.0 - - - - - - -
27/09:30am 14.4 WSW 5 7 1011.4 - 0.0 - - - - - - -
27/09:00am 14.0 SW 5 6 1010.8 - 0.6 - - - - - - -
27/08:30am 13.9 CALM 0 0 1010.6 - 0.6 - - - - - - -
27/08:00am 13.6 S 3 5 1010.9 - 0.6 - - - - - - -
27/07:30am 13.4 S 4 4 1011.3 - 0.6 - - - - - - -
27/07:00am 13.2 CALM 0 3 1011.4 - 0.6 - - - - - - -
27/06:30am 13.4 N 5 7 1010.7 - 0.6 - - - - - - -
27/06:00am 13.5 WNW 4 6 1010.7 - 0.6 - - - - - - -
27/05:30am 13.1 NW 4 6 1010.4 - 0.6 - - - - - - -
27/05:00am 13.0 W 3 4 1010.3 - 0.6 - - - - - - -
27/04:30am 12.9 W 3 4 1010.6 - 0.6 - - - - - - -
27/04:00am 12.8 W 5 7 1010.7 - 0.6 - - - - - - -
27/03:30am 13.2 W 4 6 1010.8 - 0.6 - - - - - - -
27/03:00am 13.3 NNW 1 4 1011.4 - 0.6 - - - - - - -
27/02:30am 13.2 W 4 6 1011.5 - 0.6 - - - - - - -
27/02:00am 13.1 W 5 8 1011.6 - 0.6 - - - - - - -
27/01:30am 13.2 WSW 5 7 1011.9 - 0.6 - - - - - - -
27/01:00am 13.2 SW 6 8 1012.1 - 0.6 - - - - - - -
27/12:30am 13.1 SW 7 8 1012.2 - 0.6 - - - - - - -
27/12:00am 13.1 SW 6 8 1012.2 - 0.6 - - - - - - -
 
Date/Time
EDT
Temp

°C
Wind Pressure Rain
since 9am
mm
Weather Cloud Vis
km
Sea
Height
m
Swell
Dir
 
Speed
knots
Gust
knots
hPa Trend Height
m
Period
s
Dir
26/11:30pm 13.2 SW 6 8 1012.6 - 0.6 - - - - - - -
26/11:00pm 13.3 SSW 7 10 1012.6 - 0.6 - - - - - - -
26/10:30pm 13.3 SSW 7 10 1012.6 - 0.6 - - - - - - -
26/10:00pm 13.4 SSW 6 9 1012.5 - 0.6 - - - - - - -
26/09:30pm 13.4 SSW 7 10 1012.1 - 0.6 - - - - - - -
26/09:00pm 13.5 SSW 8 11 1011.8 - 0.6 - - - - - - -
26/08:30pm 13.6 SSE 7 9 1011.2 - 0.6 - - - - - - -
26/08:00pm 13.7 S 8 11 1010.7 - 0.6 - - - - - - -
26/07:30pm 13.9 S 8 14 1010.4 - 0.6 - - - - - - -
26/07:00pm 14.0 S 8 12 1010.1 - 0.6 - - - - - - -
26/06:30pm 14.0 S 12 18 1009.7 - 0.6 - - - - - - -
26/06:00pm 14.3 SSE 13 20 1009.4 - 0.6 - - - - - - -
26/05:30pm 14.3 S 13 21 1009.3 - 0.6 - - - - - - -
26/05:00pm 14.6 SSE 12 18 1008.9 - 0.6 - - - - - - -
26/04:30pm 14.6 S 12 19 1008.6 - 0.6 - - - - - - -
26/04:00pm 14.2 SSE 13 19 1008.4 - 0.6 - - - - - - -
26/03:30pm 14.5 S 14 24 1008.0 - 0.6 - - - - - - -
26/03:00pm 14.6 S 11 21 1007.9 - 0.4 Recent precip. - - - - - -
26/02:30pm 15.4 S 12 20 1007.4 - 0.2 - - - - - - -
26/02:00pm 16.3 S 16 25 1006.8 - 0.0 - - - - - - -
26/01:32pm 19.9 ESE 12 25 1005.9 - 0.0 - - - - - - -
26/01:30pm 21.3 ESE 11 15 1005.9 - 0.0 - - - - - - -
26/01:00pm 20.3 E 7 13 1005.8 - 0.0 - - - - - - -
26/12:30pm 20.0 ESE 8 11 1005.9 - 0.0 - - - - - - -
26/12:00pm 21.6 NW 11 16 1006.0 - 0.0 - - - - - - -
26/11:30am 22.0 NW 11 17 1006.2 - 0.0 - - - - - - -
26/11:00am 20.2 NW 15 21 1006.4 - 0.0 - - - - - - -
26/10:30am 19.9 NW 16 23 1006.3 - 0.0 - - - - - - -
26/10:00am 18.8 NNW 10 15 1006.3 - 0.0 - - - - - - -
26/09:30am 17.9 NNW 9 13 1006.3 - 0.0 - - - - - - -
26/09:00am 16.9 NNW 10 16 1006.2 - 0.0 - - - - - - -
26/08:30am 16.2 NNW 7 10 1006.5 - 0.0 - - - - - - -
26/08:00am 15.3 NW 10 15 1006.5 - 0.0 - - - - - - -
26/07:30am 15.1 NNW 9 13 1006.7 - 0.0 - - - - - - -
26/07:00am 15.3 N 7 11 1007.1 - 0.0 - - - - - - -
26/06:30am 16.0 NNW 8 14 1007.0 - 0.0 - - - - - - -

Other Formats:

Comma delimited format used in spreadsheet applications
http://www.bom.gov.au/fwo/IDT60701/IDT60701.94970.axf

JavaScript Object Notation format (JSON) in row-major order
http://www.bom.gov.au/fwo/IDT60701/IDT60701.94970.json